Time;durP1;ratioP1;P1;durP2;ratioP2;P2;SDS_P1;SDS_P2;PMS_P1;PMS_P2;Temp;Humidity;BMP_temperature;BMP_pressure;BME280_temperature;BME280_humidity;BME280_pressure;Samples;Min_cycle;Max_cycle;Signal;HPM_P1;HPM_P2
2022/04/14 00:01:16;;;;;;;12.00;8.70;;;12.30;99.90;;;;;;5075026;28;20660;-60
2022/04/14 00:03:41;;;;;;;9.43;7.80;;;12.30;99.90;;;;;;5093150;28;20190;-60
2022/04/14 00:06:07;;;;;;;9.73;8.30;;;12.30;99.90;;;;;;5075194;28;20692;-59
2022/04/14 00:08:33;;;;;;;10.95;8.15;;;12.20;99.90;;;;;;5075469;28;20700;-60
2022/04/14 00:10:58;;;;;;;11.45;8.02;;;12.20;99.90;;;;;;5093094;28;20205;-59
2022/04/14 00:13:24;;;;;;;9.85;7.50;;;12.20;99.90;;;;;;5093028;28;20170;-59
2022/04/14 00:15:50;;;;;;;12.55;8.70;;;12.20;99.90;;;;;;5075100;28;20170;-59
2022/04/14 00:18:16;;;;;;;11.95;8.45;;;12.20;99.90;;;;;;5092999;28;20202;-59
2022/04/14 00:20:42;;;;;;;12.05;8.07;;;12.10;99.90;;;;;;5092859;28;20166;-59
2022/04/14 00:23:08;;;;;;;10.18;7.53;;;12.20;99.90;;;;;;5093007;28;20224;-59
2022/04/14 00:25:34;;;;;;;11.00;8.05;;;12.10;99.90;;;;;;5092907;28;20194;-59
2022/04/14 00:28:00;;;;;;;11.50;8.18;;;12.20;99.90;;;;;;5092982;28;20177;-60
2022/04/14 00:30:26;;;;;;;11.85;8.43;;;12.20;99.90;;;;;;5092417;28;20834;-60
2022/04/14 00:32:51;;;;;;;11.02;7.85;;;12.20;99.90;;;;;;5058022;28;20178;-59
2022/04/14 00:35:17;;;;;;;11.43;8.43;;;12.20;99.90;;;;;;5096791;28;20633;-59
2022/04/14 00:37:43;;;;;;;12.40;9.40;;;12.10;99.90;;;;;;5096740;28;20178;-61
2022/04/14 00:40:09;;;;;;;10.38;7.50;;;12.10;99.90;;;;;;5096759;28;20185;-59
2022/04/14 00:42:35;;;;;;;10.80;8.32;;;12.20;99.90;;;;;;5078867;28;20498;-59
2022/04/14 00:45:00;;;;;;;10.95;7.78;;;12.10;99.90;;;;;;5078575;28;20185;-59
2022/04/14 00:47:28;;;;;;;10.73;8.02;;;12.10;99.90;;;;;;5096466;28;20673;-59
2022/04/14 00:49:54;;;;;;;9.98;8.50;;;12.10;99.90;;;;;;5096417;28;20182;-59
2022/04/14 00:52:22;;;;;;;11.73;8.02;;;12.10;99.90;;;;;;5096802;28;20177;-59
2022/04/14 00:54:48;;;;;;;11.48;8.73;;;12.00;99.90;;;;;;5096463;28;20178;-60
2022/04/14 00:57:14;;;;;;;13.23;9.48;;;12.00;99.90;;;;;;5096695;28;20185;-59
2022/04/14 00:59:41;;;;;;;12.68;8.38;;;11.90;99.90;;;;;;5096252;28;20293;-60
2022/04/14 01:02:08;;;;;;;11.63;8.27;;;11.90;99.90;;;;;;5096040;28;20170;-59
2022/04/14 01:04:34;;;;;;;12.60;9.20;;;11.90;99.90;;;;;;5077908;28;20220;-59
2022/04/14 01:07:00;;;;;;;13.65;9.65;;;11.90;99.90;;;;;;5096375;28;20198;-59
2022/04/14 01:09:26;;;;;;;12.32;8.70;;;11.90;99.90;;;;;;5096473;28;20200;-59
2022/04/14 01:11:56;;;;;;;10.55;7.85;;;11.90;99.90;;;;;;5096044;28;20185;-60
2022/04/14 01:14:31;;;;;;;12.13;9.07;;;11.90;99.90;;;;;;5078179;28;20251;-59
2022/04/14 01:16:59;;;;;;;12.15;8.70;;;11.90;99.90;;;;;;5096184;28;20176;-59
2022/04/14 01:19:26;;;;;;;10.57;8.30;;;11.90;99.90;;;;;;5095918;28;20216;-60
2022/04/14 01:22:15;;;;;;;11.93;8.93;;;11.90;99.90;;;;;;5096004;28;20182;-59
2022/04/14 01:24:41;;;;;;;11.15;8.65;;;11.80;99.90;;;;;;5095766;28;20253;-60
2022/04/14 01:27:07;;;;;;;12.32;8.68;;;11.80;99.90;;;;;;5095714;28;20230;-60
2022/04/14 01:29:33;;;;;;;11.90;9.05;;;11.80;99.90;;;;;;5095572;28;20235;-60
2022/04/14 01:32:01;;;;;;;10.93;7.97;;;11.80;99.90;;;;;;5060942;28;20567;-59
2022/04/14 01:34:30;;;;;;;10.52;7.82;;;11.70;99.90;;;;;;5095801;28;20170;-60
2022/04/14 01:36:56;;;;;;;11.50;8.43;;;11.70;99.90;;;;;;5095646;28;20231;-60
2022/04/14 01:39:22;;;;;;;10.55;7.55;;;11.70;99.90;;;;;;5077517;28;20244;-60
2022/04/14 01:41:48;;;;;;;9.35;7.57;;;11.60;99.90;;;;;;5077713;28;20578;-59
2022/04/14 01:44:13;;;;;;;10.93;7.97;;;11.50;99.90;;;;;;5095242;28;20174;-60
2022/04/14 01:46:41;;;;;;;12.73;8.68;;;11.50;99.90;;;;;;5077395;28;20181;-60
2022/04/14 01:49:08;;;;;;;10.68;8.20;;;11.50;99.90;;;;;;5095479;28;20174;-59
2022/04/14 01:51:33;;;;;;;11.65;8.68;;;11.50;99.90;;;;;;5095261;28;20656;-59
2022/04/14 01:53:59;;;;;;;12.70;8.75;;;11.50;99.90;;;;;;5095280;28;20174;-60
2022/04/14 01:56:25;;;;;;;10.10;7.97;;;11.40;99.90;;;;;;5077026;28;20200;-59
2022/04/14 01:58:52;;;;;;;11.65;8.75;;;11.40;99.90;;;;;;5095335;28;20201;-59
2022/04/14 02:01:18;;;;;;;14.02;9.80;;;11.50;99.90;;;;;;5077314;28;20683;-60
2022/04/14 02:03:44;;;;;;;12.23;9.15;;;11.40;99.90;;;;;;5095241;28;20535;-59
2022/04/14 02:06:10;;;;;;;14.95;10.65;;;11.40;99.90;;;;;;5095047;28;20261;-59
2022/04/14 02:08:36;;;;;;;13.75;9.43;;;11.40;99.90;;;;;;5095016;28;20178;-59
2022/04/14 02:11:03;;;;;;;12.98;9.60;;;11.40;99.90;;;;;;5095091;28;20299;-60
2022/04/14 02:13:30;;;;;;;13.82;9.55;;;11.40;99.90;;;;;;5095161;28;20247;-59
2022/04/14 02:15:56;;;;;;;13.35;9.98;;;11.30;99.90;;;;;;5094918;28;20166;-59
2022/04/14 02:18:22;;;;;;;13.48;9.88;;;11.30;99.90;;;;;;5094718;28;20253;-59
2022/04/14 02:20:47;;;;;;;12.48;9.30;;;11.30;99.90;;;;;;5077012;28;20178;-59
2022/04/14 02:23:13;;;;;;;13.60;9.88;;;11.30;99.90;;;;;;5094667;28;20208;-60
2022/04/14 02:25:39;;;;;;;13.52;9.50;;;11.20;99.90;;;;;;5076785;28;20174;-59
2022/04/14 02:28:05;;;;;;;12.65;9.38;;;11.20;99.90;;;;;;5094574;28;20203;-59
2022/04/14 02:30:30;;;;;;;13.15;8.70;;;11.10;99.90;;;;;;5094646;28;20174;-60
2022/04/14 02:32:56;;;;;;;12.00;8.73;;;11.10;99.90;;;;;;5076261;28;20303;-59
2022/04/14 02:35:22;;;;;;;10.68;9.02;;;11.00;99.90;;;;;;5076522;28;20529;-59
2022/04/14 02:37:47;;;;;;;13.07;9.85;;;11.00;99.90;;;;;;5094267;28;20637;-59
2022/04/14 02:40:13;;;;;;;13.10;9.20;;;11.00;99.90;;;;;;5094338;28;20182;-60
2022/04/14 02:42:40;;;;;;;11.32;9.18;;;11.00;99.90;;;;;;5076505;28;20217;-60
2022/04/14 02:45:06;;;;;;;13.18;9.45;;;11.00;99.90;;;;;;5076337;28;20178;-59
2022/04/14 02:47:32;;;;;;;13.40;9.65;;;11.00;99.90;;;;;;5076331;28;20608;-60
2022/04/14 02:49:57;;;;;;;11.60;9.30;;;11.10;99.90;;;;;;5094228;28;20198;-59
2022/04/14 02:52:23;;;;;;;13.23;9.82;;;11.00;99.90;;;;;;5094102;28;20251;-59
2022/04/14 02:54:49;;;;;;;12.63;9.30;;;11.00;99.90;;;;;;5075987;28;20201;-59
2022/04/14 02:57:14;;;;;;;12.15;8.88;;;10.90;99.90;;;;;;5058948;28;20256;-59
2022/04/14 02:59:40;;;;;;;13.45;9.90;;;10.80;99.90;;;;;;5059378;28;20698;-59
2022/04/14 03:02:06;;;;;;;12.32;9.02;;;10.70;99.90;;;;;;5093953;28;20184;-59
2022/04/14 03:04:31;;;;;;;12.05;8.98;;;10.70;99.90;;;;;;5075888;28;20224;-59
2022/04/14 03:06:57;;;;;;;12.20;8.85;;;10.70;99.90;;;;;;5093765;28;20181;-59
2022/04/14 03:09:23;;;;;;;9.30;7.03;;;10.60;99.90;;;;;;5094043;28;20276;-59
2022/04/14 03:11:49;;;;;;;8.35;6.65;;;10.50;99.90;;;;;;5094024;28;20672;-60
2022/04/14 03:14:15;;;;;;;8.57;6.57;;;10.50;99.90;;;;;;5093805;28;20177;-59
2022/04/14 03:16:41;;;;;;;7.32;6.30;;;10.50;99.90;;;;;;5076057;28;20177;-59
2022/04/14 03:19:06;;;;;;;9.63;7.68;;;10.50;99.90;;;;;;5075557;28;20726;-59
2022/04/14 03:21:32;;;;;;;9.75;7.47;;;10.50;99.90;;;;;;5093863;28;20170;-59
2022/04/14 03:23:58;;;;;;;8.43;7.47;;;10.50;99.90;;;;;;5075432;28;20269;-59
2022/04/14 03:26:24;;;;;;;10.05;7.88;;;10.50;99.90;;;;;;5075557;28;20256;-59
2022/04/14 03:28:49;;;;;;;10.98;8.65;;;10.50;99.90;;;;;;5075942;28;20182;-59
2022/04/14 03:31:15;;;;;;;11.57;8.50;;;10.50;99.90;;;;;;5093442;28;20182;-59
2022/04/14 03:33:41;;;;;;;12.38;8.88;;;10.50;99.90;;;;;;5093309;28;20173;-59
2022/04/14 03:36:07;;;;;;;11.18;8.30;;;10.50;99.90;;;;;;5093341;28;20625;-60
2022/04/14 03:38:33;;;;;;;9.40;7.72;;;10.40;99.90;;;;;;5075425;28;20210;-61
2022/04/14 03:41:07;;;;;;;10.43;7.75;;;10.30;99.90;;;;;;5093532;28;20182;-59
2022/04/14 03:43:33;;;;;;;12.52;8.85;;;10.30;99.90;;;;;;5093815;28;20174;-60
2022/04/14 03:45:59;;;;;;;10.05;8.75;;;10.30;99.90;;;;;;5093420;28;20197;-60
2022/04/14 03:48:25;;;;;;;12.40;9.55;;;10.30;99.90;;;;;;5075217;28;20212;-59
2022/04/14 03:50:51;;;;;;;10.98;8.25;;;10.30;99.90;;;;;;5093642;28;20176;-60
2022/04/14 03:53:18;;;;;;;10.15;7.82;;;10.20;99.90;;;;;;5093375;28;20178;-58
2022/04/14 03:55:46;;;;;;;9.50;7.63;;;10.20;99.90;;;;;;5075424;28;20537;-59
2022/04/14 03:58:12;;;;;;;9.48;7.20;;;10.20;99.90;;;;;;5093277;28;20220;-60
2022/04/14 04:00:38;;;;;;;9.77;7.68;;;10.20;99.90;;;;;;5075115;28;20174;-60
2022/04/14 04:03:04;;;;;;;10.25;7.65;;;10.20;99.90;;;;;;5093165;28;20716;-60
2022/04/14 04:05:30;;;;;;;12.52;8.93;;;10.20;99.90;;;;;;5075096;28;20260;-61
2022/04/14 04:07:55;;;;;;;11.85;8.88;;;10.20;99.90;;;;;;5077107;28;20591;-60
2022/04/14 04:10:21;;;;;;;12.80;9.23;;;10.20;99.90;;;;;;5062949;28;20641;-60
2022/04/14 04:12:47;;;;;;;14.00;10.43;;;10.20;99.90;;;;;;5079409;28;20220;-60
2022/04/14 04:15:12;;;;;;;15.15;9.57;;;10.20;99.90;;;;;;5079165;28;20640;-60
2022/04/14 04:17:39;;;;;;;12.13;9.82;;;10.20;99.90;;;;;;5097149;28;20205;-60
2022/04/14 04:20:06;;;;;;;11.98;8.98;;;10.20;99.90;;;;;;5096830;28;20702;-60
2022/04/14 04:22:33;;;;;;;12.43;9.35;;;10.20;99.90;;;;;;5079055;28;20174;-60
2022/04/14 04:24:59;;;;;;;12.38;8.93;;;10.10;99.90;;;;;;5097125;28;20181;-60
2022/04/14 04:27:26;;;;;;;11.93;8.32;;;10.10;99.90;;;;;;5096852;28;20192;-60
2022/04/14 04:29:52;;;;;;;10.77;8.23;;;10.10;99.90;;;;;;5078929;28;20177;-60
2022/04/14 04:32:18;;;;;;;11.40;8.73;;;10.10;99.90;;;;;;5096829;28;20182;-60
2022/04/14 04:34:44;;;;;;;11.77;8.75;;;10.10;99.90;;;;;;5078851;28;20174;-60
2022/04/14 04:37:10;;;;;;;9.75;7.60;;;10.10;99.90;;;;;;5096875;28;20174;-60
2022/04/14 04:39:35;;;;;;;10.38;8.48;;;10.00;99.90;;;;;;5096616;28;20588;-60
2022/04/14 04:42:01;;;;;;;9.65;7.63;;;10.00;99.90;;;;;;5078607;28;20223;-61
2022/04/14 04:44:27;;;;;;;9.65;7.75;;;10.00;99.90;;;;;;5096534;28;20166;-61
2022/04/14 04:46:52;;;;;;;8.63;7.18;;;9.90;99.90;;;;;;5078803;28;20182;-61
2022/04/14 04:49:18;;;;;;;7.85;6.53;;;9.70;99.90;;;;;;5096296;28;20178;-60
2022/04/14 04:51:43;;;;;;;8.13;6.88;;;9.60;99.90;;;;;;5078472;28;20173;-60
2022/04/14 04:54:09;;;;;;;7.85;6.45;;;9.60;99.90;;;;;;5096522;28;20181;-60
2022/04/14 04:56:35;;;;;;;8.07;6.40;;;9.60;99.90;;;;;;5096427;28;20178;-60
2022/04/14 04:59:01;;;;;;;8.15;6.18;;;9.60;99.90;;;;;;5096330;28;20194;-60
2022/04/14 05:01:26;;;;;;;7.47;6.40;;;9.60;99.90;;;;;;5096599;28;20184;-60
2022/04/14 05:03:52;;;;;;;7.43;6.57;;;9.50;99.90;;;;;;5096136;28;20213;-60
2022/04/14 05:06:18;;;;;;;8.60;7.00;;;9.50;99.90;;;;;;5096545;28;20181;-60
2022/04/14 05:08:43;;;;;;;7.53;6.78;;;9.50;99.90;;;;;;5096334;28;20705;-60
2022/04/14 05:11:09;;;;;;;7.85;6.97;;;9.60;99.90;;;;;;5078339;28;20182;-60
2022/04/14 05:13:35;;;;;;;7.90;7.07;;;9.60;99.90;;;;;;5096179;28;20558;-60
2022/04/14 05:16:02;;;;;;;7.35;6.22;;;9.60;99.90;;;;;;5096000;28;20173;-60
2022/04/14 05:18:28;;;;;;;8.23;6.93;;;9.60;99.90;;;;;;5095760;28;20205;-60
2022/04/14 05:20:54;;;;;;;7.68;6.78;;;9.70;99.90;;;;;;5077379;28;20633;-60
2022/04/14 05:23:20;;;;;;;8.40;7.20;;;9.60;99.90;;;;;;5096224;28;20179;-60
2022/04/14 05:25:45;;;;;;;7.63;6.75;;;9.70;99.90;;;;;;5077787;28;20166;-60
2022/04/14 05:28:11;;;;;;;6.97;6.28;;;9.70;99.90;;;;;;5077872;28;20230;-60
2022/04/14 05:30:36;;;;;;;7.70;6.90;;;9.70;99.90;;;;;;5077717;28;20537;-60
2022/04/14 05:33:02;;;;;;;7.60;6.28;;;9.80;99.90;;;;;;5095464;28;20189;-60
2022/04/14 05:35:28;;;;;;;7.25;6.20;;;9.80;99.90;;;;;;5077762;28;20646;-60
2022/04/14 05:37:53;;;;;;;7.20;6.45;;;10.00;99.90;;;;;;5095609;28;20178;-60
2022/04/14 05:40:19;;;;;;;8.48;6.30;;;10.00;99.90;;;;;;5077503;28;20190;-60
2022/04/14 05:42:48;;;;;;;8.38;6.53;;;10.10;99.90;;;;;;5095461;28;20170;-60
2022/04/14 05:45:14;;;;;;;8.18;6.93;;;10.10;99.90;;;;;;5095345;28;20185;-60
2022/04/14 05:47:39;;;;;;;9.02;6.82;;;10.20;99.90;;;;;;5076088;28;20170;-60
2022/04/14 05:50:06;;;;;;;8.43;6.82;;;10.30;99.90;;;;;;5091175;28;20272;-60
2022/04/14 05:52:32;;;;;;;7.82;6.68;;;10.40;99.90;;;;;;5077191;28;20209;-60
2022/04/14 05:55:01;;;;;;;8.63;7.43;;;10.40;99.90;;;;;;5043783;28;20174;-60
2022/04/14 05:57:28;;;;;;;8.25;7.22;;;10.50;99.90;;;;;;5077569;28;20178;-60
2022/04/14 05:59:53;;;;;;;9.10;7.75;;;10.70;99.90;;;;;;5076820;28;20205;-60
2022/04/14 06:02:19;;;;;;;9.00;7.53;;;11.00;99.90;;;;;;5095336;28;20186;-60
2022/04/14 06:04:45;;;;;;;11.18;8.02;;;11.20;99.90;;;;;;5094709;28;20568;-61
2022/04/14 06:07:11;;;;;;;10.73;8.43;;;11.50;99.90;;;;;;5095135;28;20212;-61
2022/04/14 06:09:36;;;;;;;11.05;9.15;;;11.60;99.90;;;;;;5094306;28;20185;-61
2022/04/14 06:12:02;;;;;;;10.68;8.35;;;11.70;99.90;;;;;;5094734;28;20201;-61
2022/04/14 06:14:30;;;;;;;11.95;9.05;;;11.70;99.90;;;;;;5076920;28;20178;-60
2022/04/14 06:16:56;;;;;;;11.82;8.25;;;11.70;99.90;;;;;;5094816;28;20574;-60
2022/04/14 06:19:22;;;;;;;11.80;8.07;;;11.80;99.90;;;;;;5093451;28;20283;-60
2022/04/14 06:21:47;;;;;;;9.48;7.78;;;12.00;99.90;;;;;;5075525;28;20182;-61
2022/04/14 06:24:13;;;;;;;10.48;8.07;;;12.10;99.90;;;;;;5092978;28;20621;-60
2022/04/14 06:26:39;;;;;;;9.63;8.15;;;12.30;99.90;;;;;;5092926;28;20177;-60
2022/04/14 06:29:05;;;;;;;9.77;7.35;;;12.40;99.90;;;;;;5075404;28;20747;-59
2022/04/14 06:31:30;;;;;;;9.75;7.70;;;12.50;99.90;;;;;;5074658;28;20205;-60
2022/04/14 06:33:56;;;;;;;10.65;7.22;;;12.60;99.90;;;;;;5093465;28;20178;-59
2022/04/14 06:36:22;;;;;;;9.68;7.47;;;12.60;99.90;;;;;;5094384;28;20223;-60
2022/04/14 06:38:47;;;;;;;10.82;7.05;;;12.70;99.90;;;;;;5094373;28;20222;-60
2022/04/14 06:41:13;;;;;;;9.90;7.50;;;12.70;99.90;;;;;;5093952;28;20341;-60
2022/04/14 06:43:38;;;;;;;8.77;6.72;;;12.80;99.90;;;;;;5093907;28;20545;-60
2022/04/14 06:46:04;;;;;;;8.15;6.28;;;13.00;99.90;;;;;;5094113;28;20182;-60
2022/04/14 06:48:31;;;;;;;9.18;6.90;;;13.10;99.90;;;;;;5093759;28;20188;-59
2022/04/14 06:50:58;;;;;;;8.43;6.50;;;13.10;99.90;;;;;;5075987;28;20173;-60
2022/04/14 06:53:24;;;;;;;7.35;6.10;;;13.20;99.90;;;;;;5094256;28;20171;-59
2022/04/14 06:55:50;;;;;;;10.15;6.78;;;13.40;99.90;;;;;;5092824;28;20173;-60
2022/04/14 06:58:16;;;;;;;9.15;6.63;;;13.60;99.90;;;;;;5093795;28;20194;-60
2022/04/14 07:00:41;;;;;;;8.32;6.50;;;13.50;99.90;;;;;;5094136;28;20182;-59
2022/04/14 07:03:07;;;;;;;8.07;6.13;;;13.50;99.90;;;;;;5075887;28;20650;-59
2022/04/14 07:05:32;;;;;;;8.75;6.07;;;13.50;99.90;;;;;;5075804;28;20180;-59
2022/04/14 07:07:58;;;;;;;7.47;5.55;;;13.70;99.90;;;;;;5093947;28;20178;-60
2022/04/14 07:10:27;;;;;;;8.38;6.60;;;13.80;99.90;;;;;;5093767;28;20174;-59
2022/04/14 07:12:53;;;;;;;8.23;6.65;;;13.90;99.90;;;;;;5093633;28;20181;-60
2022/04/14 07:15:19;;;;;;;8.90;6.82;;;14.10;99.90;;;;;;5093838;28;20208;-60
2022/04/14 07:17:44;;;;;;;8.80;6.53;;;14.30;99.90;;;;;;5093540;28;20173;-60
2022/04/14 07:20:10;;;;;;;7.97;6.22;;;14.50;99.90;;;;;;5093856;28;20206;-60
2022/04/14 07:22:44;;;;;;;7.82;5.78;;;14.40;99.90;;;;;;5093648;28;20186;-60
2022/04/14 07:25:10;;;;;;;9.10;6.50;;;14.50;99.90;;;;;;5093545;28;20173;-60
2022/04/14 07:27:36;;;;;;;9.57;6.43;;;14.70;99.90;;;;;;5093494;28;20677;-60
2022/04/14 07:30:03;;;;;;;8.45;6.80;;;14.90;99.90;;;;;;5093604;28;20178;-60
2022/04/14 07:32:45;;;;;;;10.27;7.28;;;15.10;99.90;;;;;;5075640;28;20259;-61
2022/04/14 07:35:15;;;;;;;7.85;6.07;;;14.90;99.90;;;;;;5093454;28;20649;-61
2022/04/14 07:37:41;;;;;;;9.57;6.53;;;15.00;99.90;;;;;;5093362;28;20202;-61
2022/04/14 07:40:11;;;;;;;7.93;6.22;;;15.20;99.90;;;;;;5093483;28;20201;-60
2022/04/14 07:42:42;;;;;;;9.95;6.43;;;15.20;99.90;;;;;;5075120;28;20178;-60
2022/04/14 07:45:09;;;;;;;8.45;6.57;;;15.30;99.90;;;;;;5093418;28;20215;-60
2022/04/14 07:47:35;;;;;;;7.65;6.35;;;15.40;99.90;;;;;;5093373;28;20169;-60
2022/04/14 07:50:01;;;;;;;7.53;5.35;;;15.40;99.90;;;;;;5058531;28;20249;-60
2022/04/14 07:52:27;;;;;;;6.15;5.43;;;15.60;99.90;;;;;;5093209;28;20315;-60
2022/04/14 07:54:52;;;;;;;8.30;5.68;;;15.70;99.90;;;;;;5093592;28;20249;-60
2022/04/14 07:57:18;;;;;;;7.32;5.82;;;15.80;99.90;;;;;;5093359;28;20177;-59
2022/04/14 07:59:44;;;;;;;10.80;6.40;;;15.90;99.90;;;;;;5093230;28;20560;-60
2022/04/14 08:02:10;;;;;;;8.90;6.10;;;16.20;99.90;;;;;;5093141;28;20260;-60
2022/04/14 08:04:35;;;;;;;8.85;6.32;;;16.30;99.90;;;;;;5074868;28;20189;-60
2022/04/14 08:07:01;;;;;;;8.80;5.80;;;16.50;99.90;;;;;;5093028;28;20181;-60
2022/04/14 08:09:27;;;;;;;7.93;5.50;;;16.40;99.90;;;;;;5092957;28;20174;-59
2022/04/14 08:11:52;;;;;;;6.45;5.38;;;16.70;99.90;;;;;;5075240;28;20178;-60
2022/04/14 08:14:18;;;;;;;7.45;4.85;;;16.80;99.90;;;;;;5093219;28;20261;-60
2022/04/14 08:16:44;;;;;;;8.18;4.85;;;16.70;99.90;;;;;;5093097;28;20621;-60
2022/04/14 08:19:09;;;;;;;6.60;5.28;;;17.00;99.90;;;;;;5093089;28;20194;-60
2022/04/14 08:21:35;;;;;;;6.97;4.65;;;17.20;99.90;;;;;;5074874;28;20518;-60
2022/04/14 08:24:02;;;;;;;5.63;4.10;;;17.10;99.90;;;;;;5074800;28;20261;-60
2022/04/14 08:26:28;;;;;;;5.88;4.35;;;17.20;99.90;;;;;;5092935;28;20170;-60
2022/04/14 08:28:55;;;;;;;6.80;4.07;;;17.50;99.90;;;;;;5092824;28;20231;-60
2022/04/14 08:31:22;;;;;;;5.88;4.00;;;17.70;99.90;;;;;;5092691;28;20613;-60
2022/04/14 08:33:51;;;;;;;4.43;3.75;;;17.80;99.90;;;;;;5092847;28;20198;-60
2022/04/14 08:36:17;;;;;;;4.32;3.55;;;17.90;99.90;;;;;;5092757;28;20166;-60
2022/04/14 08:38:45;;;;;;;5.43;4.07;;;17.70;99.90;;;;;;5092666;28;20549;-60
2022/04/14 08:41:13;;;;;;;4.40;3.58;;;17.80;99.90;;;;;;5092797;28;20692;-60
2022/04/14 08:43:45;;;;;;;4.07;2.90;;;18.10;99.90;;;;;;5092795;28;20709;-60
2022/04/14 08:46:11;;;;;;;5.78;3.80;;;18.10;99.90;;;;;;5092808;28;20202;-60
2022/04/14 08:48:39;;;;;;;3.97;3.08;;;18.30;99.90;;;;;;5074568;28;20193;-60
2022/04/14 08:51:06;;;;;;;4.45;3.03;;;18.20;99.90;;;;;;5092869;28;20617;-60
2022/04/14 08:53:35;;;;;;;4.53;3.25;;;18.50;99.90;;;;;;5092769;28;20161;-60
2022/04/14 08:56:04;;;;;;;6.00;3.50;;;18.80;99.90;;;;;;5095890;28;20630;-60
2022/04/14 08:58:29;;;;;;;4.60;3.40;;;18.70;99.90;;;;;;5078300;28;20198;-60
2022/04/14 09:00:55;;;;;;;3.88;2.97;;;18.80;99.90;;;;;;5096352;28;20189;-60
2022/04/14 09:03:25;;;;;;;3.63;3.15;;;18.60;99.90;;;;;;5096293;28;20220;-61
2022/04/14 09:05:51;;;;;;;4.50;3.22;;;18.60;99.90;;;;;;5096372;28;20652;-60
2022/04/14 09:08:17;;;;;;;3.38;3.03;;;18.70;99.90;;;;;;5096314;28;20239;-60
2022/04/14 09:10:42;;;;;;;3.70;2.75;;;18.90;99.90;;;;;;5096211;28;20182;-60
2022/04/14 09:13:11;;;;;;;4.65;3.10;;;19.00;99.90;;;;;;5078027;28;20250;-61
2022/04/14 09:15:38;;;;;;;3.75;2.72;;;18.80;99.90;;;;;;5096000;28;20166;-59
2022/04/14 09:18:04;;;;;;;4.40;3.38;;;18.90;99.90;;;;;;5095693;28;20253;-59
2022/04/14 09:20:34;;;;;;;3.53;2.72;;;19.00;99.90;;;;;;5095870;28;20182;-59
2022/04/14 09:23:12;;;;;;;3.92;2.88;;;19.10;99.90;;;;;;5078678;28;20220;-59
2022/04/14 09:25:38;;;;;;;3.67;2.72;;;19.20;99.90;;;;;;5077778;28;20170;-58
2022/04/14 09:28:33;;;;;;;4.05;3.20;;;19.30;99.90;;;;;;5061091;28;20177;-60
2022/04/14 09:31:12;;;;;;;3.55;2.97;;;19.40;99.90;;;;;;5073908;28;20281;-59
2022/04/14 09:33:51;;;;;;;3.50;2.67;;;19.50;99.90;;;;;;5095766;28;20197;-59
2022/04/14 09:36:19;;;;;;;4.22;2.83;;;19.50;99.90;;;;;;5095541;28;20540;-59
2022/04/14 09:38:52;;;;;;;4.35;2.95;;;19.70;99.90;;;;;;5077329;28;20607;-59
2022/04/14 09:41:38;;;;;;;4.70;2.55;;;19.80;99.90;;;;;;5095740;28;20178;-59
2022/04/14 09:44:06;;;;;;;3.00;2.47;;;20.00;99.90;;;;;;5095458;28;20170;-59
2022/04/14 09:46:32;;;;;;;3.72;2.75;;;20.20;99.90;;;;;;5095357;28;20177;-59
2022/04/14 09:49:17;;;;;;;3.42;2.28;;;20.20;99.90;;;;;;5095392;28;20261;-59
2022/04/14 09:51:45;;;;;;;3.35;2.17;;;20.30;99.90;;;;;;5095547;28;20173;-59
2022/04/14 09:54:27;;;;;;;3.85;2.40;;;20.30;99.90;;;;;;5095312;28;20269;-59
2022/04/14 09:56:55;;;;;;;3.05;2.40;;;20.20;99.90;;;;;;5095352;28;20517;-59
2022/04/14 09:59:23;;;;;;;3.30;2.65;;;20.40;99.90;;;;;;5095074;28;20263;-59
2022/04/14 10:02:06;;;;;;;3.63;2.63;;;20.40;99.90;;;;;;5077238;28;20178;-59
2022/04/14 10:04:34;;;;;;;3.15;2.80;;;20.30;99.90;;;;;;5095388;28;20704;-60
2022/04/14 10:07:13;;;;;;;3.08;2.50;;;20.40;99.90;;;;;;5095000;28;20170;-59
2022/04/14 10:09:41;;;;;;;4.32;2.30;;;20.70;99.90;;;;;;5095186;28;20170;-59
2022/04/14 10:12:15;;;;;;;3.92;2.60;;;20.80;99.90;;;;;;5094815;28;20206;-59
2022/04/14 10:14:42;;;;;;;4.47;2.35;;;21.00;99.90;;;;;;5095020;28;20250;-59
2022/04/14 10:17:10;;;;;;;3.03;2.42;;;21.00;99.90;;;;;;5094813;28;20213;-59
2022/04/14 10:19:36;;;;;;;3.15;2.38;;;21.00;99.90;;;;;;5094740;28;20300;-59
2022/04/14 10:22:06;;;;;;;5.00;2.70;;;20.40;99.90;;;;;;5094707;28;20193;-59
2022/04/14 10:24:35;;;;;;;3.40;2.60;;;19.50;99.90;;;;;;5094572;28;20176;-59
2022/04/14 10:27:02;;;;;;;3.25;2.95;;;19.50;99.90;;;;;;5094564;28;20200;-59
2022/04/14 10:29:29;;;;;;;2.90;2.70;;;19.30;99.90;;;;;;5094055;28;20174;-59
2022/04/14 10:31:56;;;;;;;3.30;2.75;;;19.10;99.90;;;;;;5076473;28;20197;-58
2022/04/14 10:34:22;;;;;;;3.75;2.50;;;18.80;99.90;;;;;;5094452;28;20182;-59
2022/04/14 10:36:50;;;;;;;3.78;2.83;;;19.00;99.90;;;;;;5094427;28;20261;-59
2022/04/14 10:39:18;;;;;;;2.85;2.45;;;19.40;99.90;;;;;;5094208;28;20200;-59
2022/04/14 10:41:51;;;;;;;4.13;2.90;;;19.50;99.90;;;;;;5076869;28;20175;-59
2022/04/14 10:44:21;;;;;;;3.75;2.65;;;19.40;99.90;;;;;;5094510;28;20693;-61
2022/04/14 10:46:50;;;;;;;3.50;2.65;;;19.30;99.90;;;;;;5094308;28;20211;-59
2022/04/14 10:49:25;;;;;;;2.72;2.38;;;19.20;99.90;;;;;;5094112;28;20174;-59
2022/04/14 10:51:55;;;;;;;3.58;2.92;;;19.30;99.90;;;;;;5094102;28;20181;-59
2022/04/14 10:54:21;;;;;;;3.72;2.92;;;19.60;99.90;;;;;;5094217;28;20169;-61
2022/04/14 10:56:51;;;;;;;4.45;4.03;;;20.20;99.90;;;;;;5094404;28;20182;-58
2022/04/14 10:59:36;;;;;;;5.68;3.45;;;20.70;99.90;;;;;;5093894;28;20190;-61
2022/04/14 11:02:04;;;;;;;4.03;3.47;;;21.10;99.90;;;;;;5093807;28;20165;-59
2022/04/14 11:04:50;;;;;;;4.53;3.78;;;21.60;99.90;;;;;;5094141;28;20189;-59
2022/04/14 11:07:23;;;;;;;4.20;3.30;;;21.60;99.90;;;;;;5094046;28;20182;-59
2022/04/14 11:09:48;;;;;;;3.10;2.40;;;20.80;99.90;;;;;;5093838;28;20188;-59
2022/04/14 11:12:24;;;;;;;3.78;2.20;;;19.70;99.90;;;;;;5093817;28;20541;-61
2022/04/14 11:14:51;;;;;;;3.28;2.40;;;19.20;99.90;;;;;;5094000;28;20173;-59
2022/04/14 11:17:38;;;;;;;2.78;2.10;;;19.00;99.90;;;;;;5093396;28;20648;-59
2022/04/14 11:20:20;;;;;;;2.72;2.00;;;18.60;99.90;;;;;;5093835;28;20284;-59
2022/04/14 11:23:15;;;;;;;2.78;1.85;;;18.20;99.90;;;;;;5093708;28;20268;-59
2022/04/14 11:28:26;;;;;;;3.92;2.35;;;18.00;99.90;;;;;;5093673;28;20667;-60
2022/04/14 11:31:01;;;;;;;3.58;2.58;;;18.10;99.90;;;;;;5093562;28;20617;-61
2022/04/14 11:33:29;;;;;;;2.97;2.42;;;18.30;99.90;;;;;;5093646;28;20181;-60
2022/04/14 11:36:19;;;;;;;2.42;2.13;;;18.40;99.90;;;;;;5093665;28;20647;-60
2022/04/14 11:39:03;;;;;;;2.72;2.22;;;18.40;99.90;;;;;;5093485;28;20190;-60
2022/04/14 11:41:39;;;;;;;2.65;2.38;;;18.30;99.90;;;;;;5075169;28;20666;-60
2022/04/14 11:44:07;;;;;;;2.95;2.10;;;18.30;99.90;;;;;;5093540;28;20162;-60
2022/04/14 11:46:38;;;;;;;3.95;3.10;;;18.40;99.90;;;;;;5093336;28;20169;-60
2022/04/14 11:49:06;;;;;;;4.57;3.25;;;18.20;99.90;;;;;;5075287;28;20166;-60
2022/04/14 11:51:32;;;;;;;4.85;3.35;;;18.10;99.90;;;;;;5093310;28;20181;-59
2022/04/14 11:53:58;;;;;;;4.05;3.35;;;18.00;99.90;;;;;;5093268;28;20165;-60
2022/04/14 11:56:25;;;;;;;3.42;3.10;;;18.00;99.90;;;;;;5093059;28;20668;-59
2022/04/14 11:58:52;;;;;;;5.40;4.38;;;18.30;99.90;;;;;;5093139;28;20236;-60
2022/04/14 12:01:18;;;;;;;6.47;3.67;;;18.60;99.90;;;;;;5093281;28;20166;-60
2022/04/14 12:03:44;;;;;;;5.97;4.40;;;18.50;99.90;;;;;;5093274;28;20243;-60
2022/04/14 12:06:12;;;;;;;5.07;3.60;;;18.30;99.90;;;;;;5093184;28;20174;-60
2022/04/14 12:08:38;;;;;;;5.15;3.45;;;18.10;99.90;;;;;;5092923;28;20667;-60
2022/04/14 12:11:12;;;;;;;4.40;3.33;;;18.10;99.90;;;;;;5093209;28;20182;-60
2022/04/14 12:13:38;;;;;;;5.05;4.00;;;18.00;99.90;;;;;;5093152;28;20656;-60
2022/04/14 12:16:06;;;;;;;3.88;3.40;;;18.10;99.90;;;;;;5093036;28;20178;-59
2022/04/14 12:18:33;;;;;;;5.22;3.33;;;18.10;99.90;;;;;;5092896;28;20205;-60
2022/04/14 12:20:59;;;;;;;3.08;2.55;;;18.20;99.90;;;;;;5092993;28;20182;-60
2022/04/14 12:23:24;;;;;;;3.28;2.97;;;18.00;99.90;;;;;;5092813;28;20181;-59
2022/04/14 12:25:52;;;;;;;3.97;3.05;;;17.80;99.90;;;;;;5093008;28;20209;-60
2022/04/14 12:28:18;;;;;;;3.47;2.92;;;18.00;99.90;;;;;;5092877;28;20261;-60
2022/04/14 12:30:44;;;;;;;3.65;2.85;;;18.20;99.90;;;;;;5096007;28;20303;-60
2022/04/14 12:33:10;;;;;;;5.20;3.33;;;18.50;99.90;;;;;;5078707;28;20582;-60
2022/04/14 12:35:40;;;;;;;3.50;2.90;;;18.60;99.90;;;;;;5078779;28;20177;-60
2022/04/14 12:38:28;;;;;;;3.35;2.70;;;18.60;99.90;;;;;;5096923;28;20541;-60
2022/04/14 12:41:04;;;;;;;2.72;2.53;;;18.80;99.90;;;;;;5096738;28;20197;-59
2022/04/14 12:43:39;;;;;;;5.15;3.22;;;19.00;99.90;;;;;;5096637;28;20170;-60
2022/04/14 12:46:25;;;;;;;4.90;3.30;;;18.70;99.90;;;;;;5096561;28;20629;-60
2022/04/14 12:49:02;;;;;;;3.72;2.90;;;18.80;99.90;;;;;;5079196;28;20547;-58